sensor_id;sensor_type;location;lat;lon;timestamp;temperature;humidity
40454;DHT22;26160;51.858;4.398;2023-09-30T00:01:24;14.00;99.90
40454;DHT22;26160;51.858;4.398;2023-09-30T00:03:50;14.00;99.90
40454;DHT22;26160;51.858;4.398;2023-09-30T00:06:16;14.00;99.90
40454;DHT22;26160;51.858;4.398;2023-09-30T00:08:42;14.00;99.90
40454;DHT22;26160;51.858;4.398;2023-09-30T00:11:09;14.00;99.90
40454;DHT22;26160;51.858;4.398;2023-09-30T00:13:35;14.00;99.90
40454;DHT22;26160;51.858;4.398;2023-09-30T00:16:01;14.00;99.90
40454;DHT22;26160;51.858;4.398;2023-09-30T00:18:28;13.90;99.90
40454;DHT22;26160;51.858;4.398;2023-09-30T00:20:54;13.80;99.90
40454;DHT22;26160;51.858;4.398;2023-09-30T00:23:20;13.80;99.90
40454;DHT22;26160;51.858;4.398;2023-09-30T00:25:47;13.80;99.90
40454;DHT22;26160;51.858;4.398;2023-09-30T00:28:19;13.70;99.90
40454;DHT22;26160;51.858;4.398;2023-09-30T00:30:45;13.70;99.90
40454;DHT22;26160;51.858;4.398;2023-09-30T00:33:13;13.70;99.90
40454;DHT22;26160;51.858;4.398;2023-09-30T00:35:39;13.70;99.90
40454;DHT22;26160;51.858;4.398;2023-09-30T00:38:05;13.70;99.90
40454;DHT22;26160;51.858;4.398;2023-09-30T00:40:31;13.70;99.90
40454;DHT22;26160;51.858;4.398;2023-09-30T00:42:58;13.70;99.90
40454;DHT22;26160;51.858;4.398;2023-09-30T00:45:24;13.70;99.90
40454;DHT22;26160;51.858;4.398;2023-09-30T00:47:51;13.70;99.90
40454;DHT22;26160;51.858;4.398;2023-09-30T00:50:19;13.70;99.90
40454;DHT22;26160;51.858;4.398;2023-09-30T00:52:47;13.70;99.90
40454;DHT22;26160;51.858;4.398;2023-09-30T00:55:14;13.70;99.90
40454;DHT22;26160;51.858;4.398;2023-09-30T00:57:41;13.70;99.90
40454;DHT22;26160;51.858;4.398;2023-09-30T01:00:11;13.70;99.90
40454;DHT22;26160;51.858;4.398;2023-09-30T01:02:40;13.70;99.90
40454;DHT22;26160;51.858;4.398;2023-09-30T01:05:08;13.70;99.90
40454;DHT22;26160;51.858;4.398;2023-09-30T01:07:34;13.60;99.90
40454;DHT22;26160;51.858;4.398;2023-09-30T01:10:01;13.60;99.90
40454;DHT22;26160;51.858;4.398;2023-09-30T01:12:28;13.70;99.90
40454;DHT22;26160;51.858;4.398;2023-09-30T01:14:58;13.60;99.90
40454;DHT22;26160;51.858;4.398;2023-09-30T01:17:26;13.50;99.90
40454;DHT22;26160;51.858;4.398;2023-09-30T01:19:53;13.50;99.90
40454;DHT22;26160;51.858;4.398;2023-09-30T01:22:20;13.60;99.90
40454;DHT22;26160;51.858;4.398;2023-09-30T01:24:46;13.60;99.90
40454;DHT22;26160;51.858;4.398;2023-09-30T01:27:13;13.60;99.90
40454;DHT22;26160;51.858;4.398;2023-09-30T01:29:42;13.60;99.90
40454;DHT22;26160;51.858;4.398;2023-09-30T01:32:08;13.60;99.90
40454;DHT22;26160;51.858;4.398;2023-09-30T01:34:35;13.60;99.90
40454;DHT22;26160;51.858;4.398;2023-09-30T01:37:02;13.50;99.90
40454;DHT22;26160;51.858;4.398;2023-09-30T01:39:28;13.50;99.90
40454;DHT22;26160;51.858;4.398;2023-09-30T01:41:56;13.50;99.90
40454;DHT22;26160;51.858;4.398;2023-09-30T01:44:22;13.60;99.90
40454;DHT22;26160;51.858;4.398;2023-09-30T01:46:48;13.60;99.90
40454;DHT22;26160;51.858;4.398;2023-09-30T01:49:14;13.60;99.90
40454;DHT22;26160;51.858;4.398;2023-09-30T01:51:41;13.60;99.90
40454;DHT22;26160;51.858;4.398;2023-09-30T01:54:07;13.60;99.90
40454;DHT22;26160;51.858;4.398;2023-09-30T01:56:34;13.70;99.90
40454;DHT22;26160;51.858;4.398;2023-09-30T01:59:00;13.70;99.90
40454;DHT22;26160;51.858;4.398;2023-09-30T02:01:26;13.70;99.90
40454;DHT22;26160;51.858;4.398;2023-09-30T02:03:53;13.70;99.90
40454;DHT22;26160;51.858;4.398;2023-09-30T02:06:19;13.60;99.90
40454;DHT22;26160;51.858;4.398;2023-09-30T02:08:45;13.60;99.90
40454;DHT22;26160;51.858;4.398;2023-09-30T02:11:11;13.60;99.90
40454;DHT22;26160;51.858;4.398;2023-09-30T02:13:41;13.60;99.90
40454;DHT22;26160;51.858;4.398;2023-09-30T02:16:13;13.60;99.90
40454;DHT22;26160;51.858;4.398;2023-09-30T02:18:43;13.60;99.90
40454;DHT22;26160;51.858;4.398;2023-09-30T02:21:17;13.60;99.90
40454;DHT22;26160;51.858;4.398;2023-09-30T02:23:44;13.50;99.90
40454;DHT22;26160;51.858;4.398;2023-09-30T02:26:17;13.50;99.90
40454;DHT22;26160;51.858;4.398;2023-09-30T02:28:43;13.50;99.90
40454;DHT22;26160;51.858;4.398;2023-09-30T02:31:09;13.50;99.90
40454;DHT22;26160;51.858;4.398;2023-09-30T02:33:35;13.40;99.90
40454;DHT22;26160;51.858;4.398;2023-09-30T02:36:03;13.40;99.90
40454;DHT22;26160;51.858;4.398;2023-09-30T02:38:31;13.40;99.90
40454;DHT22;26160;51.858;4.398;2023-09-30T02:40:58;13.40;99.90
40454;DHT22;26160;51.858;4.398;2023-09-30T02:43:24;13.40;99.90
40454;DHT22;26160;51.858;4.398;2023-09-30T02:45:50;13.40;99.90
40454;DHT22;26160;51.858;4.398;2023-09-30T02:48:16;13.50;99.90
40454;DHT22;26160;51.858;4.398;2023-09-30T02:50:43;13.50;99.90
40454;DHT22;26160;51.858;4.398;2023-09-30T02:53:12;13.60;99.90
40454;DHT22;26160;51.858;4.398;2023-09-30T02:55:40;13.70;99.90
40454;DHT22;26160;51.858;4.398;2023-09-30T02:58:07;13.70;99.90
40454;DHT22;26160;51.858;4.398;2023-09-30T03:00:36;13.70;99.90
40454;DHT22;26160;51.858;4.398;2023-09-30T03:03:04;13.70;99.90
40454;DHT22;26160;51.858;4.398;2023-09-30T03:05:31;13.70;99.90
40454;DHT22;26160;51.858;4.398;2023-09-30T03:07:59;13.70;99.90
40454;DHT22;26160;51.858;4.398;2023-09-30T03:10:26;13.70;99.90
40454;DHT22;26160;51.858;4.398;2023-09-30T03:12:53;13.70;99.90
40454;DHT22;26160;51.858;4.398;2023-09-30T03:15:20;13.70;99.90
40454;DHT22;26160;51.858;4.398;2023-09-30T03:17:46;13.70;99.90
40454;DHT22;26160;51.858;4.398;2023-09-30T03:20:12;13.70;99.90
40454;DHT22;26160;51.858;4.398;2023-09-30T03:22:41;13.70;99.90
40454;DHT22;26160;51.858;4.398;2023-09-30T03:25:09;13.70;99.90
40454;DHT22;26160;51.858;4.398;2023-09-30T03:27:36;13.70;99.90
40454;DHT22;26160;51.858;4.398;2023-09-30T03:30:03;13.70;99.90
40454;DHT22;26160;51.858;4.398;2023-09-30T03:32:32;13.70;99.90
40454;DHT22;26160;51.858;4.398;2023-09-30T03:35:00;13.70;99.90
40454;DHT22;26160;51.858;4.398;2023-09-30T03:37:27;13.70;99.90
40454;DHT22;26160;51.858;4.398;2023-09-30T03:39:54;13.70;99.90
40454;DHT22;26160;51.858;4.398;2023-09-30T03:42:21;13.70;99.90
40454;DHT22;26160;51.858;4.398;2023-09-30T03:44:47;13.60;99.90
40454;DHT22;26160;51.858;4.398;2023-09-30T03:47:19;13.60;99.90
40454;DHT22;26160;51.858;4.398;2023-09-30T03:49:46;13.70;99.90
40454;DHT22;26160;51.858;4.398;2023-09-30T03:52:14;13.60;99.90
40454;DHT22;26160;51.858;4.398;2023-09-30T03:54:40;13.60;99.90
40454;DHT22;26160;51.858;4.398;2023-09-30T03:57:07;13.70;99.90
40454;DHT22;26160;51.858;4.398;2023-09-30T03:59:33;13.60;99.90
40454;DHT22;26160;51.858;4.398;2023-09-30T04:01:59;13.60;99.90
40454;DHT22;26160;51.858;4.398;2023-09-30T04:04:27;13.60;99.90
40454;DHT22;26160;51.858;4.398;2023-09-30T04:06:53;13.60;99.90
40454;DHT22;26160;51.858;4.398;2023-09-30T04:09:19;13.60;99.90
40454;DHT22;26160;51.858;4.398;2023-09-30T04:11:45;13.60;99.90
40454;DHT22;26160;51.858;4.398;2023-09-30T04:14:12;13.60;99.90
40454;DHT22;26160;51.858;4.398;2023-09-30T04:16:38;13.60;99.90
40454;DHT22;26160;51.858;4.398;2023-09-30T04:19:05;13.50;99.90
40454;DHT22;26160;51.858;4.398;2023-09-30T04:21:33;13.50;99.90
40454;DHT22;26160;51.858;4.398;2023-09-30T04:24:00;13.50;99.90
40454;DHT22;26160;51.858;4.398;2023-09-30T04:26:27;13.50;99.90
40454;DHT22;26160;51.858;4.398;2023-09-30T04:28:53;13.50;99.90
40454;DHT22;26160;51.858;4.398;2023-09-30T04:31:20;13.60;99.90
40454;DHT22;26160;51.858;4.398;2023-09-30T04:33:52;13.50;99.90
40454;DHT22;26160;51.858;4.398;2023-09-30T04:36:19;13.60;99.90
40454;DHT22;26160;51.858;4.398;2023-09-30T04:38:45;13.50;99.90
40454;DHT22;26160;51.858;4.398;2023-09-30T04:41:11;13.50;99.90
40454;DHT22;26160;51.858;4.398;2023-09-30T04:43:38;13.50;99.90
40454;DHT22;26160;51.858;4.398;2023-09-30T04:46:05;13.50;99.90
40454;DHT22;26160;51.858;4.398;2023-09-30T04:48:33;13.50;99.90
40454;DHT22;26160;51.858;4.398;2023-09-30T04:50:59;13.50;99.90
40454;DHT22;26160;51.858;4.398;2023-09-30T04:53:25;13.50;99.90
40454;DHT22;26160;51.858;4.398;2023-09-30T04:55:52;13.40;99.90
40454;DHT22;26160;51.858;4.398;2023-09-30T04:58:18;13.40;99.90
40454;DHT22;26160;51.858;4.398;2023-09-30T05:00:44;13.40;99.90
40454;DHT22;26160;51.858;4.398;2023-09-30T05:03:10;13.40;99.90
40454;DHT22;26160;51.858;4.398;2023-09-30T05:05:37;13.40;99.90
40454;DHT22;26160;51.858;4.398;2023-09-30T05:08:03;13.40;99.90
40454;DHT22;26160;51.858;4.398;2023-09-30T05:10:30;13.30;99.90
40454;DHT22;26160;51.858;4.398;2023-09-30T05:12:56;13.30;99.90
40454;DHT22;26160;51.858;4.398;2023-09-30T05:15:24;13.30;99.90
40454;DHT22;26160;51.858;4.398;2023-09-30T05:17:51;13.30;99.90
40454;DHT22;26160;51.858;4.398;2023-09-30T05:20:17;13.40;99.90
40454;DHT22;26160;51.858;4.398;2023-09-30T05:22:44;13.40;99.90
40454;DHT22;26160;51.858;4.398;2023-09-30T05:25:15;13.40;99.90
40454;DHT22;26160;51.858;4.398;2023-09-30T05:27:44;13.40;99.90
40454;DHT22;26160;51.858;4.398;2023-09-30T05:30:11;13.40;99.90
40454;DHT22;26160;51.858;4.398;2023-09-30T05:32:38;13.40;99.90
40454;DHT22;26160;51.858;4.398;2023-09-30T05:35:05;13.40;99.90
40454;DHT22;26160;51.858;4.398;2023-09-30T05:37:31;13.40;99.90
40454;DHT22;26160;51.858;4.398;2023-09-30T05:39:57;13.40;99.90
40454;DHT22;26160;51.858;4.398;2023-09-30T05:42:23;13.40;99.90
40454;DHT22;26160;51.858;4.398;2023-09-30T05:44:49;13.40;99.90
40454;DHT22;26160;51.858;4.398;2023-09-30T05:47:15;13.40;99.90
40454;DHT22;26160;51.858;4.398;2023-09-30T05:49:42;13.50;99.90
40454;DHT22;26160;51.858;4.398;2023-09-30T05:52:08;13.50;99.90
40454;DHT22;26160;51.858;4.398;2023-09-30T05:54:34;13.50;99.90
40454;DHT22;26160;51.858;4.398;2023-09-30T05:57:00;13.40;99.90
40454;DHT22;26160;51.858;4.398;2023-09-30T05:59:28;13.50;99.90
40454;DHT22;26160;51.858;4.398;2023-09-30T06:01:55;13.50;99.90
40454;DHT22;26160;51.858;4.398;2023-09-30T06:04:21;13.60;99.90
40454;DHT22;26160;51.858;4.398;2023-09-30T06:06:47;13.60;99.90
40454;DHT22;26160;51.858;4.398;2023-09-30T06:09:14;13.60;99.90
40454;DHT22;26160;51.858;4.398;2023-09-30T06:11:40;13.70;99.90
40454;DHT22;26160;51.858;4.398;2023-09-30T06:14:07;13.70;99.90
40454;DHT22;26160;51.858;4.398;2023-09-30T06:16:34;13.70;99.90
40454;DHT22;26160;51.858;4.398;2023-09-30T06:19:00;13.70;99.90
40454;DHT22;26160;51.858;4.398;2023-09-30T06:21:27;13.70;99.90
40454;DHT22;26160;51.858;4.398;2023-09-30T06:23:55;13.70;99.90
40454;DHT22;26160;51.858;4.398;2023-09-30T06:26:21;13.80;99.90
40454;DHT22;26160;51.858;4.398;2023-09-30T06:28:51;13.80;99.90
40454;DHT22;26160;51.858;4.398;2023-09-30T06:31:19;13.80;99.90
40454;DHT22;26160;51.858;4.398;2023-09-30T06:33:46;13.80;99.90
40454;DHT22;26160;51.858;4.398;2023-09-30T06:36:12;13.80;99.90
40454;DHT22;26160;51.858;4.398;2023-09-30T06:38:43;13.80;99.90
40454;DHT22;26160;51.858;4.398;2023-09-30T06:41:16;13.80;99.90
40454;DHT22;26160;51.858;4.398;2023-09-30T06:43:43;13.80;99.90
40454;DHT22;26160;51.858;4.398;2023-09-30T06:46:09;13.80;99.90
40454;DHT22;26160;51.858;4.398;2023-09-30T06:48:36;13.80;99.90
40454;DHT22;26160;51.858;4.398;2023-09-30T06:51:03;13.80;99.90
40454;DHT22;26160;51.858;4.398;2023-09-30T06:53:29;13.80;99.90
40454;DHT22;26160;51.858;4.398;2023-09-30T06:55:55;13.80;99.90
40454;DHT22;26160;51.858;4.398;2023-09-30T06:58:21;13.80;99.90
40454;DHT22;26160;51.858;4.398;2023-09-30T07:00:50;13.80;99.90
40454;DHT22;26160;51.858;4.398;2023-09-30T07:03:17;13.90;99.90
40454;DHT22;26160;51.858;4.398;2023-09-30T07:05:45;13.90;99.90
40454;DHT22;26160;51.858;4.398;2023-09-30T07:08:17;13.90;99.90
40454;DHT22;26160;51.858;4.398;2023-09-30T07:10:47;14.00;99.90
40454;DHT22;26160;51.858;4.398;2023-09-30T07:13:16;14.00;99.90
40454;DHT22;26160;51.858;4.398;2023-09-30T07:15:42;14.00;99.90
40454;DHT22;26160;51.858;4.398;2023-09-30T07:18:08;14.10;99.90
40454;DHT22;26160;51.858;4.398;2023-09-30T07:20:34;14.10;99.90
40454;DHT22;26160;51.858;4.398;2023-09-30T07:23:01;14.10;99.90
40454;DHT22;26160;51.858;4.398;2023-09-30T07:25:29;14.20;99.90
40454;DHT22;26160;51.858;4.398;2023-09-30T07:27:58;14.20;99.90
40454;DHT22;26160;51.858;4.398;2023-09-30T07:30:26;14.20;99.90
40454;DHT22;26160;51.858;4.398;2023-09-30T07:32:52;14.30;99.90
40454;DHT22;26160;51.858;4.398;2023-09-30T07:35:18;14.30;99.90
40454;DHT22;26160;51.858;4.398;2023-09-30T07:37:44;14.40;99.90
40454;DHT22;26160;51.858;4.398;2023-09-30T07:40:11;14.50;99.90
40454;DHT22;26160;51.858;4.398;2023-09-30T07:42:38;14.50;99.90
40454;DHT22;26160;51.858;4.398;2023-09-30T07:45:04;14.50;99.90
40454;DHT22;26160;51.858;4.398;2023-09-30T07:47:31;14.60;99.90
40454;DHT22;26160;51.858;4.398;2023-09-30T07:50:00;14.60;99.90
40454;DHT22;26160;51.858;4.398;2023-09-30T07:52:31;14.60;99.90
40454;DHT22;26160;51.858;4.398;2023-09-30T07:54:57;14.70;99.90
40454;DHT22;26160;51.858;4.398;2023-09-30T07:57:24;14.80;99.90
40454;DHT22;26160;51.858;4.398;2023-09-30T07:59:50;14.80;99.90
40454;DHT22;26160;51.858;4.398;2023-09-30T08:02:16;14.80;99.90
40454;DHT22;26160;51.858;4.398;2023-09-30T08:04:43;14.80;99.90
40454;DHT22;26160;51.858;4.398;2023-09-30T08:07:09;15.00;99.90
40454;DHT22;26160;51.858;4.398;2023-09-30T08:09:36;15.10;99.90
40454;DHT22;26160;51.858;4.398;2023-09-30T08:12:03;15.10;99.90
40454;DHT22;26160;51.858;4.398;2023-09-30T08:14:30;15.20;99.90
40454;DHT22;26160;51.858;4.398;2023-09-30T08:16:56;15.30;99.90
40454;DHT22;26160;51.858;4.398;2023-09-30T08:19:22;15.30;99.90
40454;DHT22;26160;51.858;4.398;2023-09-30T08:21:49;15.40;99.90
40454;DHT22;26160;51.858;4.398;2023-09-30T08:24:15;15.50;99.90
40454;DHT22;26160;51.858;4.398;2023-09-30T08:26:41;15.60;99.90
40454;DHT22;26160;51.858;4.398;2023-09-30T08:29:07;15.70;99.90
40454;DHT22;26160;51.858;4.398;2023-09-30T08:31:33;15.80;99.90
40454;DHT22;26160;51.858;4.398;2023-09-30T08:33:59;15.80;99.90
40454;DHT22;26160;51.858;4.398;2023-09-30T08:36:25;15.80;99.90
40454;DHT22;26160;51.858;4.398;2023-09-30T08:38:52;15.90;99.90
40454;DHT22;26160;51.858;4.398;2023-09-30T08:41:32;16.00;99.90
40454;DHT22;26160;51.858;4.398;2023-09-30T08:44:02;16.10;99.90
40454;DHT22;26160;51.858;4.398;2023-09-30T08:46:34;16.20;99.90
40454;DHT22;26160;51.858;4.398;2023-09-30T08:49:04;16.30;99.90
40454;DHT22;26160;51.858;4.398;2023-09-30T08:51:32;16.40;99.90
40454;DHT22;26160;51.858;4.398;2023-09-30T08:53:59;16.50;99.90
40454;DHT22;26160;51.858;4.398;2023-09-30T08:56:30;16.50;99.90
40454;DHT22;26160;51.858;4.398;2023-09-30T08:58:57;16.60;99.90
40454;DHT22;26160;51.858;4.398;2023-09-30T09:01:25;16.70;99.90
40454;DHT22;26160;51.858;4.398;2023-09-30T09:03:52;16.80;99.90
40454;DHT22;26160;51.858;4.398;2023-09-30T09:06:20;16.90;99.90
40454;DHT22;26160;51.858;4.398;2023-09-30T09:08:46;16.90;99.90
40454;DHT22;26160;51.858;4.398;2023-09-30T09:11:14;17.00;99.90
40454;DHT22;26160;51.858;4.398;2023-09-30T09:13:53;17.10;99.90
40454;DHT22;26160;51.858;4.398;2023-09-30T09:16:23;17.30;99.90
40454;DHT22;26160;51.858;4.398;2023-09-30T09:18:49;17.30;99.90
40454;DHT22;26160;51.858;4.398;2023-09-30T09:21:20;17.40;99.90
40454;DHT22;26160;51.858;4.398;2023-09-30T09:23:51;17.50;99.90
40454;DHT22;26160;51.858;4.398;2023-09-30T09:26:28;17.50;99.90
40454;DHT22;26160;51.858;4.398;2023-09-30T09:29:02;17.60;99.90
40454;DHT22;26160;51.858;4.398;2023-09-30T09:31:33;17.80;99.90
40454;DHT22;26160;51.858;4.398;2023-09-30T09:34:03;17.80;99.90
40454;DHT22;26160;51.858;4.398;2023-09-30T09:36:42;17.90;99.90
40454;DHT22;26160;51.858;4.398;2023-09-30T09:39:10;18.00;99.90
40454;DHT22;26160;51.858;4.398;2023-09-30T09:41:53;18.20;99.90
40454;DHT22;26160;51.858;4.398;2023-09-30T09:44:20;18.20;99.90
40454;DHT22;26160;51.858;4.398;2023-09-30T09:46:48;18.40;99.90
40454;DHT22;26160;51.858;4.398;2023-09-30T09:49:16;18.50;99.90
40454;DHT22;26160;51.858;4.398;2023-09-30T09:51:47;18.80;99.90
40454;DHT22;26160;51.858;4.398;2023-09-30T09:54:15;18.80;99.90
40454;DHT22;26160;51.858;4.398;2023-09-30T09:56:44;18.90;99.90
40454;DHT22;26160;51.858;4.398;2023-09-30T09:59:12;19.00;99.90
40454;DHT22;26160;51.858;4.398;2023-09-30T10:01:40;19.10;99.90
40454;DHT22;26160;51.858;4.398;2023-09-30T10:04:07;19.20;99.90
40454;DHT22;26160;51.858;4.398;2023-09-30T10:06:34;19.30;99.90
40454;DHT22;26160;51.858;4.398;2023-09-30T10:09:09;19.10;99.90
40454;DHT22;26160;51.858;4.398;2023-09-30T10:11:38;19.30;99.90
40454;DHT22;26160;51.858;4.398;2023-09-30T10:14:05;19.20;99.90
40454;DHT22;26160;51.858;4.398;2023-09-30T10:19:22;19.30;99.90
40454;DHT22;26160;51.858;4.398;2023-09-30T10:24:43;19.00;99.90
40454;DHT22;26160;51.858;4.398;2023-09-30T10:29:54;19.10;99.90
40454;DHT22;26160;51.858;4.398;2023-09-30T10:32:20;19.20;99.90
40454;DHT22;26160;51.858;4.398;2023-09-30T10:34:49;19.30;99.90
40454;DHT22;26160;51.858;4.398;2023-09-30T10:37:24;19.40;99.90
40454;DHT22;26160;51.858;4.398;2023-09-30T10:39:56;19.30;99.90
40454;DHT22;26160;51.858;4.398;2023-09-30T10:42:45;19.00;99.90
40454;DHT22;26160;51.858;4.398;2023-09-30T10:51:18;19.20;99.90
40454;DHT22;26160;51.858;4.398;2023-09-30T10:53:52;19.30;99.90
40454;DHT22;26160;51.858;4.398;2023-09-30T10:56:23;19.30;99.90
40454;DHT22;26160;51.858;4.398;2023-09-30T10:58:53;19.40;99.90
40454;DHT22;26160;51.858;4.398;2023-09-30T11:01:21;19.40;99.90
40454;DHT22;26160;51.858;4.398;2023-09-30T11:03:48;19.30;99.90
40454;DHT22;26160;51.858;4.398;2023-09-30T11:06:20;19.10;99.90
40454;DHT22;26160;51.858;4.398;2023-09-30T11:08:57;19.00;99.90
40454;DHT22;26160;51.858;4.398;2023-09-30T11:11:39;19.30;99.90
40454;DHT22;26160;51.858;4.398;2023-09-30T11:14:25;19.50;99.90
40454;DHT22;26160;51.858;4.398;2023-09-30T11:16:55;19.60;99.90
40454;DHT22;26160;51.858;4.398;2023-09-30T11:19:22;19.70;99.90
40454;DHT22;26160;51.858;4.398;2023-09-30T11:21:51;19.80;99.90
40454;DHT22;26160;51.858;4.398;2023-09-30T11:24:18;19.60;95.40
40454;DHT22;26160;51.858;4.398;2023-09-30T11:26:45;19.60;99.90
40454;DHT22;26160;51.858;4.398;2023-09-30T11:29:15;19.40;99.90
40454;DHT22;26160;51.858;4.398;2023-09-30T11:31:44;19.50;99.90
40454;DHT22;26160;51.858;4.398;2023-09-30T11:34:11;19.40;99.60
40454;DHT22;26160;51.858;4.398;2023-09-30T11:36:47;19.40;99.90
40454;DHT22;26160;51.858;4.398;2023-09-30T11:39:22;19.30;99.90
40454;DHT22;26160;51.858;4.398;2023-09-30T11:41:49;19.60;99.90
40454;DHT22;26160;51.858;4.398;2023-09-30T11:44:16;19.50;98.40
40454;DHT22;26160;51.858;4.398;2023-09-30T11:46:56;19.50;99.90
40454;DHT22;26160;51.858;4.398;2023-09-30T11:49:40;19.60;99.90
40454;DHT22;26160;51.858;4.398;2023-09-30T11:52:08;19.70;96.50
40454;DHT22;26160;51.858;4.398;2023-09-30T11:54:36;19.60;96.80
40454;DHT22;26160;51.858;4.398;2023-09-30T11:57:16;19.50;99.90
40454;DHT22;26160;51.858;4.398;2023-09-30T11:59:44;19.50;98.70
40454;DHT22;26160;51.858;4.398;2023-09-30T12:02:15;19.40;98.90
40454;DHT22;26160;51.858;4.398;2023-09-30T12:04:44;19.50;99.90
40454;DHT22;26160;51.858;4.398;2023-09-30T12:07:11;19.50;99.90
40454;DHT22;26160;51.858;4.398;2023-09-30T12:09:37;19.40;99.10
40454;DHT22;26160;51.858;4.398;2023-09-30T12:12:05;19.40;99.90
40454;DHT22;26160;51.858;4.398;2023-09-30T12:14:35;19.50;99.90
40454;DHT22;26160;51.858;4.398;2023-09-30T12:17:01;19.60;99.90
40454;DHT22;26160;51.858;4.398;2023-09-30T12:19:27;19.60;91.50
40454;DHT22;26160;51.858;4.398;2023-09-30T12:21:53;19.60;95.10
40454;DHT22;26160;51.858;4.398;2023-09-30T12:24:19;19.80;93.00
40454;DHT22;26160;51.858;4.398;2023-09-30T12:26:48;19.90;99.90
40454;DHT22;26160;51.858;4.398;2023-09-30T12:29:15;20.00;99.90
40454;DHT22;26160;51.858;4.398;2023-09-30T12:31:46;20.10;99.90
40454;DHT22;26160;51.858;4.398;2023-09-30T12:34:13;20.00;83.50
40454;DHT22;26160;51.858;4.398;2023-09-30T12:36:40;19.80;92.80
40454;DHT22;26160;51.858;4.398;2023-09-30T12:39:08;19.80;92.90
40454;DHT22;26160;51.858;4.398;2023-09-30T12:41:38;19.70;97.10
40454;DHT22;26160;51.858;4.398;2023-09-30T12:44:05;19.60;91.00
40454;DHT22;26160;51.858;4.398;2023-09-30T12:46:32;19.50;71.30
40454;DHT22;26160;51.858;4.398;2023-09-30T12:49:04;19.40;74.30
40454;DHT22;26160;51.858;4.398;2023-09-30T12:51:30;19.50;83.30
40454;DHT22;26160;51.858;4.398;2023-09-30T12:53:56;19.60;82.60
40454;DHT22;26160;51.858;4.398;2023-09-30T12:56:24;19.70;82.90
40454;DHT22;26160;51.858;4.398;2023-09-30T12:58:51;19.60;38.10
40454;DHT22;26160;51.858;4.398;2023-09-30T13:01:17;19.60;46.50
40454;DHT22;26160;51.858;4.398;2023-09-30T13:03:46;19.50;44.40
40454;DHT22;26160;51.858;4.398;2023-09-30T13:06:13;19.50;83.00
40454;DHT22;26160;51.858;4.398;2023-09-30T13:08:39;19.40;55.50
40454;DHT22;26160;51.858;4.398;2023-09-30T13:11:06;19.30;44.60
40454;DHT22;26160;51.858;4.398;2023-09-30T13:13:33;19.40;72.70
40454;DHT22;26160;51.858;4.398;2023-09-30T13:15:59;19.40;56.70
40454;DHT22;26160;51.858;4.398;2023-09-30T13:18:26;19.40;32.00
40454;DHT22;26160;51.858;4.398;2023-09-30T13:20:52;19.40;49.10
40454;DHT22;26160;51.858;4.398;2023-09-30T13:23:18;19.50;43.30
40454;DHT22;26160;51.858;4.398;2023-09-30T13:25:45;19.50;33.30
40454;DHT22;26160;51.858;4.398;2023-09-30T13:28:11;19.60;44.20
40454;DHT22;26160;51.858;4.398;2023-09-30T13:30:37;19.80;75.70
40454;DHT22;26160;51.858;4.398;2023-09-30T13:33:03;19.80;67.30
40454;DHT22;26160;51.858;4.398;2023-09-30T13:35:30;19.80;55.50
40454;DHT22;26160;51.858;4.398;2023-09-30T13:37:57;19.70;65.70
40454;DHT22;26160;51.858;4.398;2023-09-30T13:40:23;19.70;64.60
40454;DHT22;26160;51.858;4.398;2023-09-30T13:42:49;19.60;54.00
40454;DHT22;26160;51.858;4.398;2023-09-30T13:45:15;19.60;53.20
40454;DHT22;26160;51.858;4.398;2023-09-30T13:47:45;19.60;58.00
40454;DHT22;26160;51.858;4.398;2023-09-30T13:50:11;19.50;60.70
40454;DHT22;26160;51.858;4.398;2023-09-30T13:52:37;19.50;73.40
40454;DHT22;26160;51.858;4.398;2023-09-30T13:55:03;19.50;86.30
40454;DHT22;26160;51.858;4.398;2023-09-30T13:57:30;19.50;74.20
40454;DHT22;26160;51.858;4.398;2023-09-30T13:59:57;19.50;71.20
40454;DHT22;26160;51.858;4.398;2023-09-30T14:02:23;19.50;78.80
40454;DHT22;26160;51.858;4.398;2023-09-30T14:04:49;19.70;53.70
40454;DHT22;26160;51.858;4.398;2023-09-30T14:07:15;19.60;68.40
40454;DHT22;26160;51.858;4.398;2023-09-30T14:09:44;19.60;61.30
40454;DHT22;26160;51.858;4.398;2023-09-30T14:12:10;19.70;64.60
40454;DHT22;26160;51.858;4.398;2023-09-30T14:14:37;19.60;56.40
40454;DHT22;26160;51.858;4.398;2023-09-30T14:17:07;19.50;69.20
40454;DHT22;26160;51.858;4.398;2023-09-30T14:19:36;19.40;75.20
40454;DHT22;26160;51.858;4.398;2023-09-30T14:22:03;19.30;85.70
40454;DHT22;26160;51.858;4.398;2023-09-30T14:24:35;19.40;79.80
40454;DHT22;26160;51.858;4.398;2023-09-30T14:27:02;19.40;66.60
40454;DHT22;26160;51.858;4.398;2023-09-30T14:29:32;19.50;63.70
40454;DHT22;26160;51.858;4.398;2023-09-30T14:31:58;19.40;90.40
40454;DHT22;26160;51.858;4.398;2023-09-30T14:34:24;19.40;66.40
40454;DHT22;26160;51.858;4.398;2023-09-30T14:36:51;19.30;71.10
40454;DHT22;26160;51.858;4.398;2023-09-30T14:39:18;19.40;86.40
40454;DHT22;26160;51.858;4.398;2023-09-30T14:41:45;19.40;73.80
40454;DHT22;26160;51.858;4.398;2023-09-30T14:44:11;19.30;94.80
40454;DHT22;26160;51.858;4.398;2023-09-30T14:46:38;19.20;65.00
40454;DHT22;26160;51.858;4.398;2023-09-30T14:49:05;19.20;60.80
40454;DHT22;26160;51.858;4.398;2023-09-30T14:51:35;19.20;90.10
40454;DHT22;26160;51.858;4.398;2023-09-30T14:54:03;19.30;91.30
40454;DHT22;26160;51.858;4.398;2023-09-30T14:56:29;19.10;59.90
40454;DHT22;26160;51.858;4.398;2023-09-30T14:58:55;19.10;64.50
40454;DHT22;26160;51.858;4.398;2023-09-30T15:01:21;19.00;69.10
40454;DHT22;26160;51.858;4.398;2023-09-30T15:03:47;18.80;62.00
40454;DHT22;26160;51.858;4.398;2023-09-30T15:06:14;18.80;78.90
40454;DHT22;26160;51.858;4.398;2023-09-30T15:08:40;18.90;87.80
40454;DHT22;26160;51.858;4.398;2023-09-30T15:11:13;18.90;90.60
40454;DHT22;26160;51.858;4.398;2023-09-30T15:13:40;18.90;73.60
40454;DHT22;26160;51.858;4.398;2023-09-30T15:16:15;19.00;89.10
40454;DHT22;26160;51.858;4.398;2023-09-30T15:18:41;19.00;99.90
40454;DHT22;26160;51.858;4.398;2023-09-30T15:21:07;19.00;80.60
40454;DHT22;26160;51.858;4.398;2023-09-30T15:23:33;19.00;79.00
40454;DHT22;26160;51.858;4.398;2023-09-30T15:26:00;18.90;77.30
40454;DHT22;26160;51.858;4.398;2023-09-30T15:28:26;18.80;62.70
40454;DHT22;26160;51.858;4.398;2023-09-30T15:30:53;18.80;80.00
40454;DHT22;26160;51.858;4.398;2023-09-30T15:33:20;18.70;74.90
40454;DHT22;26160;51.858;4.398;2023-09-30T15:35:46;18.70;77.50
40454;DHT22;26160;51.858;4.398;2023-09-30T15:38:12;18.60;66.30
40454;DHT22;26160;51.858;4.398;2023-09-30T15:40:57;18.60;91.10
40454;DHT22;26160;51.858;4.398;2023-09-30T15:43:24;18.50;89.50
40454;DHT22;26160;51.858;4.398;2023-09-30T15:45:51;18.40;84.90
40454;DHT22;26160;51.858;4.398;2023-09-30T15:48:17;18.40;92.70